Kruibeke, Belgium
Current Conditions -  °F | °C
As of 3:50 PM on Tuesday 21 Oct 2014 (Local Time) from EBAW Reporting Station
Scattered Clouds Scattered Clouds  
Wind Chill: 12°   Ceiling: Unl
Heat Index: 12°   Visibility: 6mi
Dew Point:   Wind: 18mph
Humidity: 77%   Direction: 290°WNW
Pressure: 29.59"   Gusts: NA
Location:  51.17°N, 4.31°E
Report Text: EBAW 211350Z 29016KT 9999 SCT022 12/08 Q1002 TEMPO 4500 SHRA
Loading
Personal Weather Stations






























Interactive Weather Map
Tropical Storm Tracking
New forecast layout! Learn more

10-Day Weather Forecast

Advertisements
Track Severe Weather on mobile